Time;durP1;ratioP1;P1;durP2;ratioP2;P2;SDS_P1;SDS_P2;PMS_P1;PMS_P2;Temp;Humidity;BMP_temperature;BMP_pressure;BME280_temperature;BME280_humidity;BME280_pressure;Samples;Min_cycle;Max_cycle;Signal;HPM_P1;HPM_P2
2024/01/16 00:00:52;;;;;;;14.48;9.32;;;;;;;;;;5091735;28;20108;-55
2024/01/16 00:03:18;;;;;;;13.40;7.90;;;;;;;;;;5091196;28;20031;-55
2024/01/16 00:05:44;;;;;;;13.68;8.25;;;;;;;;;;5091495;28;20540;-56
2024/01/16 00:08:10;;;;;;;14.43;8.68;;;;;;;;;;5091530;28;20044;-59
2024/01/16 00:10:36;;;;;;;13.05;7.90;;;;;;;;;;5091341;28;20109;-57
2024/01/16 00:13:02;;;;;;;13.80;8.15;;;;;;;;;;5090929;28;20024;-56
2024/01/16 00:15:28;;;;;;;17.40;9.73;;;;;;;;;;5091469;28;20050;-58
2024/01/16 00:17:54;;;;;;;16.83;11.13;;;;;;;;;;5091250;28;20032;-59
2024/01/16 00:20:21;;;;;;;13.07;7.97;;;;;;;;;;5091557;28;20032;-60
2024/01/16 00:22:47;;;;;;;13.53;8.90;;;;;;;;;;5089868;28;20109;-59
2024/01/16 00:25:14;;;;;;;13.13;7.88;;;;;;;;;;5091251;28;20266;-60
2024/01/16 00:27:40;;;;;;;13.43;8.10;;;;;;;;;;5072879;28;20020;-59
2024/01/16 00:30:06;;;;;;;15.00;9.48;;;;;;;;;;5091298;28;20655;-58
2024/01/16 00:32:32;;;;;;;14.73;9.27;;;;;;;;;;5090329;28;20076;-60
2024/01/16 00:34:59;;;;;;;23.50;8.98;;;;;;;;;;5091033;28;20032;-57
2024/01/16 00:37:25;;;;;;;14.43;9.13;;;;;;;;;;5086288;28;20489;-59
2024/01/16 00:39:51;;;;;;;11.77;6.80;;;;;;;;;;5082931;28;20088;-60
2024/01/16 00:42:16;;;;;;;12.45;7.80;;;;;;;;;;5090367;28;20114;-59
2024/01/16 00:44:42;;;;;;;12.35;7.30;;;;;;;;;;5091196;28;20493;-57
2024/01/16 00:47:09;;;;;;;14.65;6.80;;;;;;;;;;5084131;22;20099;-50
2024/01/16 00:49:36;;;;;;;11.73;6.93;;;;;;;;;;5051810;28;20068;-49
2024/01/16 00:52:02;;;;;;;12.65;7.45;;;;;;;;;;5050960;28;20444;-47
2024/01/16 00:54:28;;;;;;;16.58;10.30;;;;;;;;;;5051555;28;20105;-49
2024/01/16 00:56:59;;;;;;;11.68;6.40;;;;;;;;;;5051625;28;20040;-46
2024/01/16 00:59:25;;;;;;;10.50;6.10;;;;;;;;;;5051624;28;20442;-50
2024/01/16 01:01:51;;;;;;;12.98;7.57;;;;;;;;;;5052374;28;20048;-51
2024/01/16 01:04:17;;;;;;;10.82;6.38;;;;;;;;;;5053693;28;20021;-50
2024/01/16 01:06:43;;;;;;;11.40;6.95;;;;;;;;;;5052625;28;20025;-47
2024/01/16 01:09:11;;;;;;;10.45;6.20;;;;;;;;;;5052063;28;20038;-48
2024/01/16 01:11:38;;;;;;;11.68;7.03;;;;;;;;;;5051484;28;20091;-44
2024/01/16 01:14:04;;;;;;;9.50;5.65;;;;;;;;;;5051971;28;20108;-47
2024/01/16 01:16:30;;;;;;;12.73;7.82;;;;;;;;;;5051884;28;20043;-50
2024/01/16 01:18:56;;;;;;;13.63;7.60;;;;;;;;;;5051966;28;20032;-47
2024/01/16 01:21:22;;;;;;;9.35;5.50;;;;;;;;;;5046374;28;20021;-51
2024/01/16 01:23:48;;;;;;;11.93;6.57;;;;;;;;;;5051453;28;20074;-50
2024/01/16 01:26:15;;;;;;;9.85;5.78;;;;;;;;;;5051562;28;20104;-48
2024/01/16 01:28:41;;;;;;;11.35;6.40;;;;;;;;;;5051500;28;20082;-49
2024/01/16 01:31:11;;;;;;;14.65;8.00;;;;;;;;;;5051032;28;20040;-51
2024/01/16 01:33:37;;;;;;;9.98;5.80;;;;;;;;;;5051400;28;20029;-50
2024/01/16 01:36:03;;;;;;;14.18;8.93;;;;;;;;;;5050507;28;20036;-50
2024/01/16 01:38:29;;;;;;;10.98;6.57;;;;;;;;;;5051218;28;20025;-48
2024/01/16 01:40:55;;;;;;;11.07;7.03;;;;;;;;;;5051056;28;20024;-49
2024/01/16 01:43:22;;;;;;;16.08;6.75;;;;;;;;;;5032617;28;20017;-48
2024/01/16 01:46:04;;;;;;;8.80;5.18;;;;;;;;;;5050835;28;20615;-49
2024/01/16 01:48:31;;;;;;;9.43;5.65;;;;;;;;;;5017207;28;20025;-48
2024/01/16 01:50:58;;;;;;;9.80;5.78;;;;;;;;;;5050737;28;20013;-47
2024/01/16 01:53:24;;;;;;;15.93;7.90;;;;;;;;;;5050667;28;20032;-49
2024/01/16 01:55:50;;;;;;;10.82;7.65;;;;;;;;;;5050885;28;20052;-51
2024/01/16 01:58:16;;;;;;;10.43;5.95;;;;;;;;;;5050922;28;20060;-52
2024/01/16 02:00:42;;;;;;;9.65;5.50;;;;;;;;;;5050318;28;20533;-49
2024/01/16 02:03:08;;;;;;;15.07;8.13;;;;;;;;;;5050429;28;20025;-50
2024/01/16 02:05:34;;;;;;;13.15;8.35;;;;;;;;;;5032720;28;20031;-49
2024/01/16 02:08:00;;;;;;;9.65;5.32;;;;;;;;;;5030868;28;20017;-48
2024/01/16 02:10:26;;;;;;;12.73;6.18;;;;;;;;;;5022285;28;20080;-50
2024/01/16 02:12:52;;;;;;;12.13;6.10;;;;;;;;;;5032522;28;20033;-48
2024/01/16 02:15:18;;;;;;;12.27;7.53;;;;;;;;;;5050924;28;20044;-51
2024/01/16 02:17:44;;;;;;;9.52;5.50;;;;;;;;;;5050888;28;20083;-47
2024/01/16 02:20:11;;;;;;;9.30;5.60;;;;;;;;;;5050627;28;20032;-48
2024/01/16 02:22:38;;;;;;;14.77;6.45;;;;;;;;;;5050093;28;20118;-50
2024/01/16 02:25:04;;;;;;;12.52;8.07;;;;;;;;;;5050818;28;20083;-51
2024/01/16 02:27:30;;;;;;;9.75;5.75;;;;;;;;;;5050786;28;20049;-47
2024/01/16 02:29:56;;;;;;;12.73;6.07;;;;;;;;;;5050967;28;20072;-49
2024/01/16 02:32:22;;;;;;;9.13;5.40;;;;;;;;;;5050064;28;20021;-49
2024/01/16 02:34:48;;;;;;;11.50;5.78;;;;;;;;;;5050732;28;20074;-47
2024/01/16 02:37:14;;;;;;;13.75;6.97;;;;;;;;;;5050627;28;20123;-47
2024/01/16 02:39:40;;;;;;;10.45;5.95;;;;;;;;;;5032749;28;20036;-46
2024/01/16 02:42:06;;;;;;;8.43;5.00;;;;;;;;;;5050143;28;20095;-53
2024/01/16 02:44:32;;;;;;;12.88;7.22;;;;;;;;;;5032937;28;20100;-46
2024/01/16 02:47:00;;;;;;;9.50;5.97;;;;;;;;;;5050189;28;20048;-48
2024/01/16 02:49:26;;;;;;;12.73;6.78;;;;;;;;;;5050580;28;20483;-46
2024/01/16 02:51:52;;;;;;;10.95;5.88;;;;;;;;;;5032002;28;20083;-49
2024/01/16 02:54:18;;;;;;;10.90;7.07;;;;;;;;;;5032791;28;20035;-51
2024/01/16 02:56:45;;;;;;;17.15;8.07;;;;;;;;;;5050410;28;20098;-51
2024/01/16 02:59:11;;;;;;;9.85;5.80;;;;;;;;;;5032646;28;20116;-48
2024/01/16 03:01:37;;;;;;;12.05;7.22;;;;;;;;;;5032126;28;20516;-46
2024/01/16 03:04:03;;;;;;;14.35;7.97;;;;;;;;;;5050249;28;20032;-46
2024/01/16 03:06:29;;;;;;;12.45;7.88;;;;;;;;;;5049985;28;20025;-50
2024/01/16 03:08:55;;;;;;;10.93;6.45;;;;;;;;;;5032554;28;20487;-49
2024/01/16 03:11:21;;;;;;;13.40;8.13;;;;;;;;;;5049487;28;20035;-49
2024/01/16 03:13:49;;;;;;;9.55;5.65;;;;;;;;;;5050283;28;20033;-54
2024/01/16 03:16:15;;;;;;;9.27;5.47;;;;;;;;;;5050172;28;20017;-46
2024/01/16 03:18:42;;;;;;;15.95;9.13;;;;;;;;;;5032317;28;20419;-50
2024/01/16 03:21:08;;;;;;;15.18;10.10;;;;;;;;;;5031809;28;20025;-50
2024/01/16 03:23:34;;;;;;;12.38;5.60;;;;;;;;;;5050251;28;20017;-46
2024/01/16 03:26:00;;;;;;;11.48;5.75;;;;;;;;;;5050355;28;20610;-47
2024/01/16 03:28:26;;;;;;;12.30;7.90;;;;;;;;;;5032393;28;20048;-48
2024/01/16 03:30:53;;;;;;;10.50;5.75;;;;;;;;;;5049803;28;20384;-51
2024/01/16 03:33:20;;;;;;;9.30;5.60;;;;;;;;;;5031501;28;20029;-48
2024/01/16 03:35:47;;;;;;;10.90;5.85;;;;;;;;;;5032131;28;20042;-48
2024/01/16 03:38:14;;;;;;;12.68;7.30;;;;;;;;;;5032510;28;20029;-49
2024/01/16 03:40:40;;;;;;;10.10;6.85;;;;;;;;;;5049821;28;20564;-47
2024/01/16 03:43:06;;;;;;;9.75;5.60;;;;;;;;;;5049446;28;20055;-45
2024/01/16 03:45:32;;;;;;;9.10;5.43;;;;;;;;;;5032569;28;20087;-51
2024/01/16 03:47:59;;;;;;;11.57;6.22;;;;;;;;;;5050115;28;20418;-47
2024/01/16 03:50:25;;;;;;;11.98;6.47;;;;;;;;;;5043984;28;20075;-58
2024/01/16 03:52:51;;;;;;;14.20;8.63;;;;;;;;;;5030969;28;20021;-46
2024/01/16 03:55:17;;;;;;;12.60;6.38;;;;;;;;;;5049790;28;20060;-50
2024/01/16 03:57:43;;;;;;;9.60;5.78;;;;;;;;;;5049626;28;20090;-50
2024/01/16 04:00:12;;;;;;;9.35;5.50;;;;;;;;;;5053385;28;20025;-48
2024/01/16 04:02:38;;;;;;;10.98;6.10;;;;;;;;;;5052400;28;20024;-49
2024/01/16 04:05:05;;;;;;;10.68;5.97;;;;;;;;;;5032255;28;20480;-45
2024/01/16 04:07:31;;;;;;;10.63;6.45;;;;;;;;;;5033171;28;20044;-53
2024/01/16 04:09:57;;;;;;;9.88;5.88;;;;;;;;;;5032922;28;20096;-50
2024/01/16 04:12:23;;;;;;;11.93;6.22;;;;;;;;;;5031352;28;20041;-52
2024/01/16 04:14:49;;;;;;;10.10;6.20;;;;;;;;;;5032989;28;20021;-49
2024/01/16 04:17:15;;;;;;;13.15;6.85;;;;;;;;;;5033241;28;20036;-46
2024/01/16 04:19:41;;;;;;;9.95;6.22;;;;;;;;;;5031995;28;20049;-50
2024/01/16 04:22:07;;;;;;;12.43;6.35;;;;;;;;;;5032465;28;20099;-48
2024/01/16 04:24:33;;;;;;;9.05;5.38;;;;;;;;;;5031784;28;20018;-51
2024/01/16 04:26:59;;;;;;;10.40;6.13;;;;;;;;;;5037527;28;20032;-48
2024/01/16 04:29:25;;;;;;;11.95;6.35;;;;;;;;;;5031722;28;20033;-52
2024/01/16 04:31:51;;;;;;;9.38;5.50;;;;;;;;;;5044477;28;20017;-46
2024/01/16 04:34:17;;;;;;;9.68;5.82;;;;;;;;;;5035299;28;20510;-49
2024/01/16 04:36:43;;;;;;;9.63;5.93;;;;;;;;;;5035044;28;20115;-48
2024/01/16 04:39:09;;;;;;;12.02;7.07;;;;;;;;;;5045636;28;20025;-51
2024/01/16 04:41:36;;;;;;;11.90;6.70;;;;;;;;;;5050841;28;20047;-48
2024/01/16 04:44:02;;;;;;;14.00;7.65;;;;;;;;;;5036306;28;20620;-50
2024/01/16 04:46:28;;;;;;;9.15;5.30;;;;;;;;;;5053362;28;20033;-46
2024/01/16 04:48:55;;;;;;;11.38;6.07;;;;;;;;;;5035930;28;20036;-49
2024/01/16 04:51:21;;;;;;;9.95;6.60;;;;;;;;;;5048647;28;20025;-48
2024/01/16 04:53:47;;;;;;;9.93;6.15;;;;;;;;;;5032543;28;20542;-49
2024/01/16 04:56:13;;;;;;;14.73;8.18;;;;;;;;;;5032213;28;20030;-50
2024/01/16 04:58:39;;;;;;;8.77;5.22;;;;;;;;;;5031137;28;20567;-45
2024/01/16 05:01:05;;;;;;;12.35;6.70;;;;;;;;;;5031752;28;20381;-47
2024/01/16 05:03:31;;;;;;;15.43;9.65;;;;;;;;;;5032391;28;20025;-50
2024/01/16 05:05:57;;;;;;;10.00;5.80;;;;;;;;;;5032386;28;20470;-50
2024/01/16 05:08:24;;;;;;;10.30;5.80;;;;;;;;;;5040190;28;20017;-53
2024/01/16 05:10:50;;;;;;;9.50;5.60;;;;;;;;;;5032275;28;20104;-43
2024/01/16 05:13:16;;;;;;;12.80;7.18;;;;;;;;;;5032063;28;20014;-47
2024/01/16 05:15:42;;;;;;;12.38;7.20;;;;;;;;;;5032178;28;20105;-47
2024/01/16 05:18:09;;;;;;;11.32;6.95;;;;;;;;;;5032399;28;20483;-48
2024/01/16 05:20:35;;;;;;;10.00;5.90;;;;;;;;;;5030605;28;20376;-53
2024/01/16 05:23:01;;;;;;;14.27;7.50;;;;;;;;;;5030525;28;20053;-48
2024/01/16 05:25:27;;;;;;;9.88;5.82;;;;;;;;;;5031620;28;20036;-49
2024/01/16 05:27:53;;;;;;;11.00;6.60;;;;;;;;;;5032074;28;20071;-46
2024/01/16 05:30:19;;;;;;;10.30;6.00;;;;;;;;;;5031904;28;20443;-52
2024/01/16 05:32:45;;;;;;;11.93;7.68;;;;;;;;;;5031070;28;20122;-51
2024/01/16 05:35:11;;;;;;;11.57;6.72;;;;;;;;;;5032056;28;20112;-48
2024/01/16 05:37:37;;;;;;;11.50;6.75;;;;;;;;;;5040231;28;20120;-47
2024/01/16 05:40:03;;;;;;;11.80;6.95;;;;;;;;;;5030349;28;20061;-47
2024/01/16 05:42:30;;;;;;;12.32;7.25;;;;;;;;;;5039200;28;20025;-47
2024/01/16 05:44:56;;;;;;;9.60;5.70;;;;;;;;;;5031540;28;20135;-48
2024/01/16 05:47:24;;;;;;;13.43;7.95;;;;;;;;;;5031284;28;20026;-49
2024/01/16 05:49:50;;;;;;;10.55;6.13;;;;;;;;;;5031446;28;20028;-51
2024/01/16 05:52:16;;;;;;;12.20;6.43;;;;;;;;;;5029248;28;20037;-50
2024/01/16 05:54:42;;;;;;;10.52;6.70;;;;;;;;;;5029856;28;20115;-44
2024/01/16 05:57:08;;;;;;;10.52;6.25;;;;;;;;;;5031310;28;20052;-52
2024/01/16 05:59:34;;;;;;;12.68;7.28;;;;;;;;;;5030951;28;20168;-48
2024/01/16 06:02:00;;;;;;;14.88;7.28;;;;;;;;;;5028829;28;20025;-47
2024/01/16 06:04:26;;;;;;;10.23;5.97;;;;;;;;;;5029828;28;20022;-52
2024/01/16 06:06:52;;;;;;;9.98;6.55;;;;;;;;;;5030889;28;20014;-46
2024/01/16 06:09:18;;;;;;;10.75;6.53;;;;;;;;;;5030564;28;20083;-48
2024/01/16 06:11:44;;;;;;;10.32;6.10;;;;;;;;;;5030336;28;20120;-50
2024/01/16 06:14:12;;;;;;;10.30;6.03;;;;;;;;;;5030710;28;20036;-48
2024/01/16 06:16:38;;;;;;;9.90;5.80;;;;;;;;;;5030543;28;20051;-52
2024/01/16 06:19:05;;;;;;;10.50;6.25;;;;;;;;;;5029658;28;20029;-49
2024/01/16 06:21:31;;;;;;;10.73;6.15;;;;;;;;;;5029416;28;20533;-51
2024/01/16 06:23:57;;;;;;;10.15;5.80;;;;;;;;;;5030689;28;20025;-51
2024/01/16 06:26:23;;;;;;;9.50;5.60;;;;;;;;;;5030991;28;20022;-51
2024/01/16 06:28:49;;;;;;;10.95;6.32;;;;;;;;;;5018677;28;20031;-50
2024/01/16 06:31:17;;;;;;;12.32;7.07;;;;;;;;;;5043134;28;20103;-53
2024/01/16 06:33:43;;;;;;;14.85;7.43;;;;;;;;;;5020973;28;20415;-50
2024/01/16 06:36:09;;;;;;;9.80;5.80;;;;;;;;;;5030552;28;20026;-46
2024/01/16 06:38:35;;;;;;;9.80;5.78;;;;;;;;;;5047687;28;20028;-48
2024/01/16 06:41:01;;;;;;;10.93;6.88;;;;;;;;;;5049723;28;20032;-51
2024/01/16 06:43:27;;;;;;;13.30;7.45;;;;;;;;;;5050144;28;20028;-51
2024/01/16 06:45:53;;;;;;;11.27;6.50;;;;;;;;;;5069445;22;20029;-57
2024/01/16 06:48:19;;;;;;;11.57;6.68;;;;;;;;;;5068265;28;20051;-58
2024/01/16 06:50:45;;;;;;;10.95;6.65;;;;;;;;;;5067811;28;20060;-55
2024/01/16 06:53:13;;;;;;;11.55;6.80;;;;;;;;;;5067772;28;20029;-57
2024/01/16 06:55:38;;;;;;;9.55;5.65;;;;;;;;;;5065945;28;20024;-56
2024/01/16 06:58:05;;;;;;;9.45;5.60;;;;;;;;;;5068022;28;20043;-59
2024/01/16 07:00:31;;;;;;;9.05;5.28;;;;;;;;;;5068257;28;20502;-60
2024/01/16 07:02:57;;;;;;;10.23;6.45;;;;;;;;;;5066919;28;20114;-56
2024/01/16 07:05:23;;;;;;;12.00;6.20;;;;;;;;;;5068069;28;20108;-57
2024/01/16 07:07:49;;;;;;;14.95;7.57;;;;;;;;;;5068585;28;20099;-59
2024/01/16 07:10:19;;;;;;;22.00;6.50;;;;;;;;;;5068355;28;20111;-58
2024/01/16 07:12:45;;;;;;;9.80;5.80;;;;;;;;;;5067808;28;20093;-58
2024/01/16 07:15:11;;;;;;;10.80;6.57;;;;;;;;;;5050397;28;20039;-58
2024/01/16 07:17:37;;;;;;;10.80;6.47;;;;;;;;;;5068199;28;20021;-60
2024/01/16 07:20:04;;;;;;;12.98;7.57;;;;;;;;;;5068213;28;20036;-54
2024/01/16 07:22:30;;;;;;;9.40;5.50;;;;;;;;;;5067433;28;20428;-58
2024/01/16 07:24:56;;;;;;;10.68;6.45;;;;;;;;;;5068512;28;20032;-56
2024/01/16 07:27:22;;;;;;;9.10;5.40;;;;;;;;;;5068059;28;20470;-58
2024/01/16 07:29:48;;;;;;;14.32;7.82;;;;;;;;;;5068045;28;20063;-57
2024/01/16 07:32:14;;;;;;;12.98;6.47;;;;;;;;;;5067839;28;20021;-58
2024/01/16 07:34:40;;;;;;;9.30;5.45;;;;;;;;;;5071291;28;20419;-59
2024/01/16 07:37:05;;;;;;;10.52;5.43;;;;;;;;;;5072084;28;20062;-58
2024/01/16 07:39:31;;;;;;;9.98;5.93;;;;;;;;;;5071980;28;20056;-59
2024/01/16 07:41:57;;;;;;;9.48;5.65;;;;;;;;;;5071401;28;20025;-58
2024/01/16 07:44:23;;;;;;;19.98;7.70;;;;;;;;;;5071791;28;20597;-53
2024/01/16 07:46:49;;;;;;;11.55;7.65;;;;;;;;;;5072260;28;20032;-55
2024/01/16 07:49:16;;;;;;;9.07;5.38;;;;;;;;;;5072416;28;20166;-58
2024/01/16 07:51:42;;;;;;;10.02;6.07;;;;;;;;;;5071438;28;20088;-58
2024/01/16 07:54:09;;;;;;;9.88;5.82;;;;;;;;;;5071746;28;20032;-56
2024/01/16 07:56:36;;;;;;;9.00;5.30;;;;;;;;;;5071513;28;20032;-60
2024/01/16 07:59:02;;;;;;;9.30;5.50;;;;;;;;;;5071671;28;20094;-54
2024/01/16 08:01:29;;;;;;;10.77;5.80;;;;;;;;;;5070952;28;20052;-57
2024/01/16 08:03:58;;;;;;;9.40;5.60;;;;;;;;;;5070866;28;20028;-59
2024/01/16 08:06:24;;;;;;;14.45;6.85;;;;;;;;;;5071766;28;20024;-59
2024/01/16 08:08:50;;;;;;;10.77;6.28;;;;;;;;;;5071882;28;20038;-60
2024/01/16 08:11:17;;;;;;;10.45;6.15;;;;;;;;;;5070925;28;20036;-59
2024/01/16 08:13:43;;;;;;;10.63;5.95;;;;;;;;;;5071698;28;20043;-60
2024/01/16 08:16:10;;;;;;;11.85;6.63;;;;;;;;;;5053366;28;20044;-56
2024/01/16 08:18:36;;;;;;;9.90;5.70;;;;;;;;;;5053420;28;20028;-60
2024/01/16 08:21:02;;;;;;;9.40;5.60;;;;;;;;;;5070896;28;20044;-59
2024/01/16 08:23:28;;;;;;;9.38;5.82;;;;;;;;;;5070940;28;20024;-60
2024/01/16 08:25:54;;;;;;;9.80;5.88;;;;;;;;;;5070924;28;20074;-58
2024/01/16 08:28:20;;;;;;;9.85;6.70;;;;;;;;;;5071114;28;20020;-60
2024/01/16 08:30:46;;;;;;;12.05;6.65;;;;;;;;;;5070536;28;20028;-60
2024/01/16 08:33:12;;;;;;;9.90;5.80;;;;;;;;;;5070538;28;20639;-59
2024/01/16 08:35:38;;;;;;;9.73;5.72;;;;;;;;;;5071105;28;20478;-59
2024/01/16 08:38:04;;;;;;;11.98;6.78;;;;;;;;;;5071102;28;20076;-56
2024/01/16 08:40:31;;;;;;;9.30;5.60;;;;;;;;;;5052848;28;20570;-60
2024/01/16 08:42:57;;;;;;;9.32;5.50;;;;;;;;;;5052296;28;20110;-56
2024/01/16 08:45:23;;;;;;;13.02;6.38;;;;;;;;;;5070197;28;20040;-54
2024/01/16 08:47:49;;;;;;;10.55;6.10;;;;;;;;;;5070512;28;20441;-56
2024/01/16 08:50:15;;;;;;;12.68;6.55;;;;;;;;;;5047235;28;20478;-55
2024/01/16 08:52:42;;;;;;;10.95;6.22;;;;;;;;;;5069075;28;20488;-56
2024/01/16 08:55:09;;;;;;;11.05;6.15;;;;;;;;;;5070511;28;20069;-54
2024/01/16 08:57:35;;;;;;;16.00;11.33;;;;;;;;;;5070168;28;20031;-55
2024/01/16 09:00:03;;;;;;;10.70;6.35;;;;;;;;;;5069917;28;20116;-52
2024/01/16 09:02:30;;;;;;;10.45;6.35;;;;;;;;;;5069298;28;20394;-52
2024/01/16 09:04:56;;;;;;;12.90;8.47;;;;;;;;;;5052201;28;20056;-51
2024/01/16 09:07:22;;;;;;;14.95;8.80;;;;;;;;;;5070257;28;20052;-56
2024/01/16 09:09:48;;;;;;;11.93;6.82;;;;;;;;;;5069873;28;20070;-56
2024/01/16 09:12:15;;;;;;;12.77;7.32;;;;;;;;;;5068936;28;20024;-56
2024/01/16 09:14:41;;;;;;;14.95;8.30;;;;;;;;;;5069583;28;20024;-57
2024/01/16 09:17:07;;;;;;;13.48;7.22;;;;;;;;;;5069541;28;20020;-54
2024/01/16 09:19:33;;;;;;;10.10;5.78;;;;;;;;;;5069442;28;20028;-56
2024/01/16 09:21:59;;;;;;;14.35;8.23;;;;;;;;;;5068991;28;20443;-56
2024/01/16 09:24:25;;;;;;;11.20;6.78;;;;;;;;;;5069524;28;20082;-55
2024/01/16 09:26:51;;;;;;;13.52;7.93;;;;;;;;;;5069106;28;20368;-55
2024/01/16 09:29:17;;;;;;;11.85;7.22;;;;;;;;;;5069781;28;20158;-58
2024/01/16 09:31:43;;;;;;;9.88;6.10;;;;;;;;;;5068596;28;20028;-55
2024/01/16 09:34:09;;;;;;;9.60;5.57;;;;;;;;;;5069425;28;20470;-57
2024/01/16 09:36:36;;;;;;;12.38;7.45;;;;;;;;;;5069127;28;20032;-57
2024/01/16 09:39:03;;;;;;;8.90;5.32;;;;;;;;;;5069508;28;20531;-51
2024/01/16 09:41:32;;;;;;;9.15;5.95;;;;;;;;;;5068609;28;20448;-54
2024/01/16 09:43:58;;;;;;;11.43;8.75;;;;;;;;;;5069617;28;20054;-54
2024/01/16 09:46:25;;;;;;;12.57;6.75;;;;;;;;;;5068988;28;20106;-54
2024/01/16 09:48:52;;;;;;;12.05;7.32;;;;;;;;;;5069135;28;20653;-53
2024/01/16 09:51:18;;;;;;;10.23;5.88;;;;;;;;;;5068557;28;20032;-53
2024/01/16 09:53:44;;;;;;;10.38;5.60;;;;;;;;;;5069003;28;20485;-52
2024/01/16 09:56:15;;;;;;;11.15;7.55;;;;;;;;;;5067967;28;20103;-53
2024/01/16 09:58:41;;;;;;;14.90;7.45;;;;;;;;;;5061248;28;20035;-57
2024/01/16 10:01:07;;;;;;;10.07;6.28;;;;;;;;;;5050675;28;20017;-56
2024/01/16 10:03:35;;;;;;;9.60;6.03;;;;;;;;;;5068569;28;20032;-54
2024/01/16 10:06:07;;;;;;;34.53;9.17;;;;;;;;;;5069606;28;20028;-52
2024/01/16 10:08:33;;;;;;;12.45;6.95;;;;;;;;;;5069400;28;20028;-52
2024/01/16 10:10:59;;;;;;;14.20;8.88;;;;;;;;;;5064450;28;20017;-57
2024/01/16 10:13:26;;;;;;;18.17;8.60;;;;;;;;;;5068831;28;20021;-57
2024/01/16 10:15:55;;;;;;;8.82;5.20;;;;;;;;;;5068658;28;20284;-55
2024/01/16 10:18:24;;;;;;;11.27;6.88;;;;;;;;;;5068641;28;20425;-55
2024/01/16 10:20:52;;;;;;;13.43;6.70;;;;;;;;;;5050383;28;20031;-55
2024/01/16 10:23:25;;;;;;;8.95;5.32;;;;;;;;;;5068042;28;20027;-53
2024/01/16 10:26:05;;;;;;;8.85;5.22;;;;;;;;;;5068251;28;20032;-56
2024/01/16 10:28:32;;;;;;;9.75;6.15;;;;;;;;;;5068567;28;20087;-56
2024/01/16 10:31:08;;;;;;;9.60;5.60;;;;;;;;;;5068237;28;20095;-55
2024/01/16 10:33:34;;;;;;;9.55;5.70;;;;;;;;;;5068400;28;20430;-53
2024/01/16 10:36:10;;;;;;;9.50;5.60;;;;;;;;;;5068303;28;20017;-50
2024/01/16 10:38:39;;;;;;;9.88;5.75;;;;;;;;;;5051053;28;20125;-55
2024/01/16 10:41:16;;;;;;;9.20;5.47;;;;;;;;;;5047799;28;20021;-56
2024/01/16 10:43:44;;;;;;;11.20;6.40;;;;;;;;;;5048340;28;20029;-55
2024/01/16 10:46:13;;;;;;;10.30;6.15;;;;;;;;;;5030210;28;20104;-55
2024/01/16 10:48:43;;;;;;;10.15;6.00;;;;;;;;;;5030723;28;20028;-53
2024/01/16 10:51:12;;;;;;;10.00;5.90;;;;;;;;;;5047631;28;20594;-51
2024/01/16 10:53:42;;;;;;;12.30;7.45;;;;;;;;;;5048598;28;20028;-52
2024/01/16 10:56:10;;;;;;;8.73;5.15;;;;;;;;;;5048341;28;20026;-56
2024/01/16 10:58:36;;;;;;;13.75;8.05;;;;;;;;;;5030450;28;20445;-53
2024/01/16 11:01:04;;;;;;;10.27;6.03;;;;;;;;;;5047602;28;20036;-53
2024/01/16 11:03:36;;;;;;;9.35;5.50;;;;;;;;;;5047327;28;20029;-54
2024/01/16 11:06:04;;;;;;;8.80;5.20;;;;;;;;;;5048385;28;20092;-51
2024/01/16 11:08:33;;;;;;;11.05;6.40;;;;;;;;;;5048236;28;20048;-52
2024/01/16 11:11:00;;;;;;;8.82;5.20;;;;;;;;;;5048534;28;20089;-50
2024/01/16 11:13:26;;;;;;;10.43;6.40;;;;;;;;;;5048798;28;20509;-53
2024/01/16 11:15:53;;;;;;;11.00;6.38;;;;;;;;;;5048714;28;20657;-51
2024/01/16 11:18:19;;;;;;;10.52;5.97;;;;;;;;;;5048498;28;20028;-50
2024/01/16 11:20:46;;;;;;;9.93;5.70;;;;;;;;;;5048511;28;20029;-51
2024/01/16 11:23:13;;;;;;;11.23;6.47;;;;;;;;;;5048001;28;20044;-49
2024/01/16 11:25:39;;;;;;;10.88;5.93;;;;;;;;;;5048430;28;20031;-52
2024/01/16 11:28:13;;;;;;;10.75;6.10;;;;;;;;;;5048249;28;20540;-54
2024/01/16 11:30:39;;;;;;;9.85;5.72;;;;;;;;;;5057075;28;20052;-52
2024/01/16 11:33:05;;;;;;;9.50;5.60;;;;;;;;;;5067561;28;20052;-51
2024/01/16 11:35:36;;;;;;;12.18;7.00;;;;;;;;;;5068081;28;20028;-54
2024/01/16 11:38:07;;;;;;;13.30;7.53;;;;;;;;;;5068703;28;20036;-54
2024/01/16 11:40:33;;;;;;;10.40;6.10;;;;;;;;;;5066929;28;20024;-51
2024/01/16 11:42:59;;;;;;;12.05;6.53;;;;;;;;;;5064247;28;20024;-57
2024/01/16 11:45:31;;;;;;;11.65;7.88;;;;;;;;;;5067638;28;20034;-53
2024/01/16 11:48:12;;;;;;;10.52;6.20;;;;;;;;;;5067518;28;20032;-57
2024/01/16 11:50:39;;;;;;;11.40;6.50;;;;;;;;;;5067351;28;20024;-50
2024/01/16 11:53:05;;;;;;;11.30;6.60;;;;;;;;;;5048851;28;20021;-58
2024/01/16 11:55:32;;;;;;;12.98;7.28;;;;;;;;;;5067317;28;20043;-51
2024/01/16 11:57:58;;;;;;;11.05;6.85;;;;;;;;;;5067439;28;20028;-52
2024/01/16 12:00:28;;;;;;;10.55;6.10;;;;;;;;;;5049307;28;20029;-51
2024/01/16 12:02:56;;;;;;;10.50;6.47;;;;;;;;;;5067007;28;20584;-52
2024/01/16 12:05:22;;;;;;;10.60;6.30;;;;;;;;;;5048616;28;20030;-55
2024/01/16 12:07:53;;;;;;;10.45;6.10;;;;;;;;;;5067265;28;20032;-55
2024/01/16 12:10:20;;;;;;;9.73;5.70;;;;;;;;;;5066855;28;20119;-56
2024/01/16 12:12:47;;;;;;;10.60;6.30;;;;;;;;;;5058083;28;20032;-51
2024/01/16 12:15:16;;;;;;;10.82;6.38;;;;;;;;;;5060767;28;20499;-52
2024/01/16 12:17:51;;;;;;;11.02;6.50;;;;;;;;;;5047762;28;20052;-54
2024/01/16 12:20:18;;;;;;;13.18;6.35;;;;;;;;;;5061428;28;20534;-58
2024/01/16 12:22:44;;;;;;;10.82;6.10;;;;;;;;;;5026475;28;20052;-54
2024/01/16 12:25:11;;;;;;;10.00;5.85;;;;;;;;;;5059894;28;20064;-56
2024/01/16 12:27:37;;;;;;;10.65;6.28;;;;;;;;;;5059514;28;20021;-53
2024/01/16 12:30:08;;;;;;;10.90;6.45;;;;;;;;;;5062749;28;20103;-49
2024/01/16 12:32:34;;;;;;;10.00;5.97;;;;;;;;;;5069492;28;20028;-53
2024/01/16 12:35:00;;;;;;;11.00;6.40;;;;;;;;;;5070513;28;20032;-50
2024/01/16 12:37:26;;;;;;;12.00;7.68;;;;;;;;;;5070255;28;20494;-55
2024/01/16 12:39:53;;;;;;;10.90;6.40;;;;;;;;;;5070885;28;20094;-56
2024/01/16 12:42:19;;;;;;;14.90;7.43;;;;;;;;;;5069946;28;20021;-50
2024/01/16 12:44:46;;;;;;;10.40;6.13;;;;;;;;;;5052514;28;20108;-52
2024/01/16 12:47:15;;;;;;;10.98;6.22;;;;;;;;;;5071042;28;20499;-54
2024/01/16 12:49:45;;;;;;;11.57;6.65;;;;;;;;;;5070400;28;20025;-54
2024/01/16 12:52:26;;;;;;;10.60;6.20;;;;;;;;;;5062544;28;20032;-56
2024/01/16 12:55:04;;;;;;;12.30;8.75;;;;;;;;;;5050870;28;20395;-53
2024/01/16 12:57:30;;;;;;;11.30;6.57;;;;;;;;;;5049759;28;20029;-52
2024/01/16 13:00:00;;;;;;;11.20;6.50;;;;;;;;;;5050167;28;20387;-53
2024/01/16 13:02:26;;;;;;;10.00;5.90;;;;;;;;;;5049618;28;20037;-48
2024/01/16 13:04:59;;;;;;;11.52;6.57;;;;;;;;;;5049244;28;20025;-55
2024/01/16 13:07:26;;;;;;;10.48;6.20;;;;;;;;;;5050208;28;20025;-55
2024/01/16 13:10:06;;;;;;;10.02;5.88;;;;;;;;;;5050339;28;20029;-51
2024/01/16 13:12:33;;;;;;;9.55;5.68;;;;;;;;;;5050140;28;20025;-55
2024/01/16 13:14:59;;;;;;;10.38;6.10;;;;;;;;;;5066799;28;20505;-52
2024/01/16 13:17:25;;;;;;;21.63;6.97;;;;;;;;;;5069909;28;20037;-49
2024/01/16 13:19:51;;;;;;;10.10;5.97;;;;;;;;;;5069439;28;20039;-56
2024/01/16 13:22:17;;;;;;;10.45;6.18;;;;;;;;;;5069092;28;20036;-55
2024/01/16 13:24:43;;;;;;;10.75;6.32;;;;;;;;;;5069680;28;20440;-54
2024/01/16 13:27:09;;;;;;;11.30;6.70;;;;;;;;;;5069887;28;20028;-55
2024/01/16 13:29:39;;;;;;;10.98;6.45;;;;;;;;;;5069559;28;20045;-56
2024/01/16 13:32:05;;;;;;;11.00;6.43;;;;;;;;;;5068770;28;20039;-52
2024/01/16 13:34:31;;;;;;;11.15;6.50;;;;;;;;;;5051125;28;20025;-53
2024/01/16 13:36:59;;;;;;;10.68;6.25;;;;;;;;;;5069287;28;20052;-55
2024/01/16 13:39:25;;;;;;;10.98;6.60;;;;;;;;;;5069251;28;20528;-55
2024/01/16 13:41:51;;;;;;;10.55;6.20;;;;;;;;;;5067795;28;20589;-51
2024/01/16 13:44:17;;;;;;;12.13;7.53;;;;;;;;;;5054505;28;20024;-56
2024/01/16 13:46:44;;;;;;;10.27;6.03;;;;;;;;;;5049526;28;20047;-50
2024/01/16 13:49:10;;;;;;;10.63;6.25;;;;;;;;;;5049297;28;20037;-54
2024/01/16 13:51:36;;;;;;;10.82;6.35;;;;;;;;;;5048193;28;20078;-54
2024/01/16 13:54:03;;;;;;;11.05;6.43;;;;;;;;;;5049043;28;20032;-53
2024/01/16 13:56:29;;;;;;;11.63;6.78;;;;;;;;;;5048884;28;20441;-56
2024/01/16 13:58:55;;;;;;;13.50;6.88;;;;;;;;;;5049180;28;20090;-55
2024/01/16 14:01:21;;;;;;;10.50;6.20;;;;;;;;;;5065524;28;20028;-54
2024/01/16 14:03:48;;;;;;;10.68;6.85;;;;;;;;;;5067618;28;20017;-56
2024/01/16 14:06:15;;;;;;;11.45;6.70;;;;;;;;;;5067972;28;20028;-56
2024/01/16 14:08:41;;;;;;;12.52;7.63;;;;;;;;;;5051028;28;20177;-55
2024/01/16 14:11:07;;;;;;;11.85;6.90;;;;;;;;;;5067886;28;20530;-54
2024/01/16 14:13:33;;;;;;;11.63;6.80;;;;;;;;;;5049231;28;20043;-56
2024/01/16 14:15:59;;;;;;;12.27;7.10;;;;;;;;;;5056032;28;20078;-52
2024/01/16 14:18:25;;;;;;;28.60;8.90;;;;;;;;;;5029653;28;20029;-50
2024/01/16 14:20:51;;;;;;;13.45;8.32;;;;;;;;;;5048198;28;20149;-53
2024/01/16 14:23:17;;;;;;;12.70;7.40;;;;;;;;;;5048248;28;20119;-54
2024/01/16 14:25:45;;;;;;;14.25;8.18;;;;;;;;;;5048241;28;20064;-53
2024/01/16 14:28:12;;;;;;;12.93;8.68;;;;;;;;;;5048614;28;20104;-55
2024/01/16 14:30:38;;;;;;;11.57;6.75;;;;;;;;;;5057604;28;20413;-53